Time,TemperatureF,DewpointF,PressureIn,WindDirection,WindDirectionDegrees,WindSpeedMPH,WindSpeedGustMPH,Humidity,HourlyPrecipIn,Conditions,Clouds,dailyrainin,SoftwareType,DateUTC
2013-06-02 00:01:00,74.9,72.1,30.25,ENE,67,0.0,0.0,91,0.02,,,0.00,WUHU21623XXSP,2013-06-02 04:01:00,
2013-06-02 00:06:00,74.9,72.4,30.26,ENE,67,0.0,0.0,92,0.02,,,0.00,WUHU21623XXSP,2013-06-02 04:06:00,
2013-06-02 00:11:00,74.9,72.4,30.26,ENE,67,0.0,0.0,92,0.02,,,0.00,WUHU21623XXSP,2013-06-02 04:11:00,
2013-06-02 00:16:00,74.9,72.4,30.26,ENE,67,0.0,0.0,92,0.02,,,0.00,WUHU21623XXSP,2013-06-02 04:16:00,
2013-06-02 00:22:00,74.9,72.4,30.26,ESE,112,0.0,0.0,92,0.02,,,0.00,WUHU21623XXSP,2013-06-02 04:22:00,
2013-06-02 00:27:00,74.9,72.4,30.26,SE,135,0.0,0.0,92,0.02,,,0.00,WUHU21623XXSP,2013-06-02 04:27:00,
2013-06-02 00:32:00,74.9,72.4,30.26,East,90,0.0,0.0,92,0.02,,,0.00,WUHU21623XXSP,2013-06-02 04:32:00,
2013-06-02 00:37:00,74.9,72.4,30.26,ESE,112,0.0,0.0,92,0.02,,,0.00,WUHU21623XXSP,2013-06-02 04:37:00,
2013-06-02 00:42:00,74.9,72.4,30.25,ESE,112,0.0,0.0,92,0.00,,,0.00,WUHU21623XXSP,2013-06-02 04:42:00,
2013-06-02 00:47:00,74.9,72.4,30.25,SE,135,0.0,0.0,92,0.00,,,0.00,WUHU21623XXSP,2013-06-02 04:47:00,
2013-06-02 00:52:00,74.9,72.4,30.25,ESE,112,0.0,0.0,92,0.00,,,0.00,WUHU21623XXSP,2013-06-02 04:52:00,
2013-06-02 00:57:00,74.9,72.4,30.25,East,90,0.0,0.0,92,0.00,,,0.00,WUHU21623XXSP,2013-06-02 04:57:00,
2013-06-02 01:02:00,74.9,72.4,30.25,ESE,112,0.0,0.0,92,0.00,,,0.00,WUHU21623XXSP,2013-06-02 05:02:00,
2013-06-02 01:07:00,74.9,72.4,30.25,ESE,112,0.0,0.0,92,0.00,,,0.00,WUHU21623XXSP,2013-06-02 05:07:00,
2013-06-02 01:12:00,74.9,72.4,30.25,ESE,112,0.0,0.0,92,0.00,,,0.00,WUHU21623XXSP,2013-06-02 05:12:00,
2013-06-02 01:17:00,74.9,72.1,30.25,ESE,112,0.0,0.0,91,0.00,,,0.00,WUHU21623XXSP,2013-06-02 05:17:00,
2013-06-02 01:22:00,74.9,72.1,30.25,ESE,112,0.0,0.0,91,0.00,,,0.00,WUHU21623XXSP,2013-06-02 05:22:00,
2013-06-02 01:27:00,74.9,72.1,30.25,ESE,112,0.0,0.0,91,0.00,,,0.00,WUHU21623XXSP,2013-06-02 05:27:00,
2013-06-02 01:32:00,74.9,72.1,30.25,ESE,112,0.0,0.0,91,0.00,,,0.00,WUHU21623XXSP,2013-06-02 05:32:00,
2013-06-02 01:37:00,74.9,72.1,30.25,ESE,112,0.0,0.0,91,0.00,,,0.00,WUHU21623XXSP,2013-06-02 05:37:00,
2013-06-02 01:42:00,74.9,72.1,30.25,ESE,112,0.0,0.0,91,0.00,,,0.00,WUHU21623XXSP,2013-06-02 05:42:00,
2013-06-02 01:47:00,74.9,72.1,30.24,ESE,112,0.0,0.0,91,0.00,,,0.00,WUHU21623XXSP,2013-06-02 05:47:00,
2013-06-02 01:52:00,75.1,72.3,30.24,ESE,112,0.0,0.0,91,0.00,,,0.00,WUHU21623XXSP,2013-06-02 05:52:00,
2013-06-02 01:57:00,75.1,72.3,30.24,ESE,112,0.0,0.0,91,0.00,,,0.00,WUHU21623XXSP,2013-06-02 05:57:00,
2013-06-02 02:02:00,75.1,72.3,30.24,ESE,112,0.0,0.0,91,0.00,,,0.00,WUHU21623XXSP,2013-06-02 06:02:00,
2013-06-02 02:08:00,74.9,72.1,30.24,ESE,112,0.0,0.0,91,0.00,,,0.00,WUHU21623XXSP,2013-06-02 06:08:00,
2013-06-02 02:13:00,74.9,72.1,30.24,ESE,112,0.0,0.0,91,0.00,,,0.00,WUHU21623XXSP,2013-06-02 06:13:00,
2013-06-02 02:18:00,74.9,72.1,30.23,ESE,112,0.0,0.0,91,0.00,,,0.00,WUHU21623XXSP,2013-06-02 06:18:00,
2013-06-02 02:23:00,74.7,71.9,30.23,ESE,112,0.0,0.0,91,0.00,,,0.00,WUHU21623XXSP,2013-06-02 06:23:00,
2013-06-02 02:28:00,74.7,71.9,30.23,East,90,0.0,0.0,91,0.00,,,0.00,WUHU21623XXSP,2013-06-02 06:28:00,
2013-06-02 02:33:00,74.9,72.4,30.23,East,90,0.0,0.0,92,0.00,,,0.00,WUHU21623XXSP,2013-06-02 06:33:00,
2013-06-02 02:38:00,74.9,72.4,30.22,East,90,0.0,0.0,92,0.00,,,0.00,WUHU21623XXSP,2013-06-02 06:38:00,
2013-06-02 02:43:00,74.9,72.4,30.22,East,90,0.0,0.0,92,0.00,,,0.00,WUHU21623XXSP,2013-06-02 06:43:00,
2013-06-02 02:48:00,74.9,72.4,30.22,ENE,67,0.0,0.0,92,0.00,,,0.00,WUHU21623XXSP,2013-06-02 06:48:00,
2013-06-02 02:53:00,74.9,72.4,30.22,ENE,67,0.0,0.0,92,0.00,,,0.00,WUHU21623XXSP,2013-06-02 06:53:00,
2013-06-02 02:58:00,74.9,72.4,30.22,NNE,22,0.0,0.0,92,0.00,,,0.00,WUHU21623XXSP,2013-06-02 06:58:00,
2013-06-02 03:03:00,74.9,72.4,30.22,ENE,67,0.0,0.0,92,0.00,,,0.00,WUHU21623XXSP,2013-06-02 07:03:00,
2013-06-02 03:08:00,74.7,72.2,30.22,East,90,0.0,0.0,92,0.00,,,0.00,WUHU21623XXSP,2013-06-02 07:08:00,
2013-06-02 03:13:00,74.7,72.2,30.22,ENE,67,0.0,0.0,92,0.00,,,0.00,WUHU21623XXSP,2013-06-02 07:13:00,
2013-06-02 03:18:00,74.7,72.2,30.22,East,90,0.0,0.0,92,0.00,,,0.00,WUHU21623XXSP,2013-06-02 07:18:00,
2013-06-02 03:23:00,74.7,72.2,30.21,ESE,112,0.0,0.0,92,0.00,,,0.00,WUHU21623XXSP,2013-06-02 07:23:00,
2013-06-02 03:28:00,74.7,72.2,30.21,ESE,112,0.0,0.0,92,0.00,,,0.00,WUHU21623XXSP,2013-06-02 07:28:00,
2013-06-02 03:33:00,74.7,72.2,30.22,ESE,112,0.0,0.0,92,0.00,,,0.00,WUHU21623XXSP,2013-06-02 07:33:00,
2013-06-02 03:38:00,74.6,72.1,30.22,ENE,67,0.0,0.0,92,0.00,,,0.00,WUHU21623XXSP,2013-06-02 07:38:00,
2013-06-02 03:43:00,74.6,72.4,30.22,ESE,112,0.0,0.0,93,0.00,,,0.00,WUHU21623XXSP,2013-06-02 07:43:00,
2013-06-02 03:48:00,74.6,72.4,30.22,ESE,112,0.0,0.0,93,0.00,,,0.00,WUHU21623XXSP,2013-06-02 07:48:00,
2013-06-02 03:53:00,74.4,71.9,30.22,ENE,67,0.0,0.0,92,0.00,,,0.00,WUHU21623XXSP,2013-06-02 07:53:00,
2013-06-02 03:58:00,74.4,71.9,30.21,ESE,112,0.0,0.0,92,0.00,,,0.00,WUHU21623XXSP,2013-06-02 07:58:00,
2013-06-02 04:03:00,74.4,71.9,30.21,SE,135,0.0,0.0,92,0.00,,,0.00,WUHU21623XXSP,2013-06-02 08:03:00,
2013-06-02 04:09:00,74.4,71.9,30.21,SE,135,0.0,0.0,92,0.00,,,0.00,WUHU21623XXSP,2013-06-02 08:09:00,
2013-06-02 04:14:00,74.2,71.7,30.21,SE,135,0.0,0.0,92,0.00,,,0.00,WUHU21623XXSP,2013-06-02 08:14:00,
2013-06-02 04:19:00,74.4,71.9,30.21,ESE,112,0.0,0.0,92,0.00,,,0.00,WUHU21623XXSP,2013-06-02 08:19:00,
2013-06-02 04:24:00,74.2,72.0,30.21,ESE,112,0.0,0.0,93,0.00,,,0.00,WUHU21623XXSP,2013-06-02 08:24:00,
2013-06-02 04:29:00,74.0,71.5,30.21,East,90,0.0,0.0,92,0.00,,,0.00,WUHU21623XXSP,2013-06-02 08:29:00,
2013-06-02 04:34:00,74.0,71.5,30.21,ESE,112,0.0,0.0,92,0.00,,,0.00,WUHU21623XXSP,2013-06-02 08:34:00,
2013-06-02 04:39:00,74.0,71.5,30.21,ESE,112,0.0,0.0,92,0.00,,,0.00,WUHU21623XXSP,2013-06-02 08:39:00,
2013-06-02 04:44:00,74.0,71.5,30.21,ESE,112,0.0,0.0,92,0.00,,,0.00,WUHU21623XXSP,2013-06-02 08:44:00,
2013-06-02 04:49:00,74.0,71.5,30.20,ESE,112,0.0,0.0,92,0.00,,,0.00,WUHU21623XXSP,2013-06-02 08:49:00,
2013-06-02 04:54:00,73.8,71.3,30.21,ESE,112,0.0,0.0,92,0.00,,,0.00,WUHU21623XXSP,2013-06-02 08:54:00,
2013-06-02 04:59:00,73.8,71.3,30.21,ESE,112,0.0,0.0,92,0.00,,,0.00,WUHU21623XXSP,2013-06-02 08:59:00,
2013-06-02 05:04:00,73.8,71.3,30.20,ESE,112,0.0,0.0,92,0.00,,,0.00,WUHU21623XXSP,2013-06-02 09:04:00,
2013-06-02 05:09:00,73.8,71.3,30.19,ESE,112,0.0,0.0,92,0.00,,,0.00,WUHU21623XXSP,2013-06-02 09:09:00,
2013-06-02 05:14:00,73.7,71.2,30.19,ESE,112,0.0,0.0,92,0.00,,,0.00,WUHU21623XXSP,2013-06-02 09:14:00,
2013-06-02 05:19:00,73.5,71.0,30.19,ESE,112,0.0,0.0,92,0.00,,,0.00,WUHU21623XXSP,2013-06-02 09:19:00,
2013-06-02 05:24:00,73.5,71.0,30.19,ESE,112,0.0,0.0,92,0.00,,,0.00,WUHU21623XXSP,2013-06-02 09:24:00,
2013-06-02 05:29:00,73.5,71.0,30.19,ESE,112,0.0,0.0,92,0.00,,,0.00,WUHU21623XXSP,2013-06-02 09:29:00,
2013-06-02 05:34:00,73.5,71.0,30.19,ESE,112,0.0,0.0,92,0.00,,,0.00,WUHU21623XXSP,2013-06-02 09:34:00,
2013-06-02 05:39:00,73.5,71.0,30.20,ESE,112,0.0,0.0,92,0.00,,,0.00,WUHU21623XXSP,2013-06-02 09:39:00,
2013-06-02 05:44:00,73.3,70.8,30.20,ESE,112,0.0,0.0,92,0.00,,,0.00,WUHU21623XXSP,2013-06-02 09:44:00,
2013-06-02 05:49:00,73.3,70.8,30.21,ESE,112,0.0,0.0,92,0.00,,,0.00,WUHU21623XXSP,2013-06-02 09:49:00,
2013-06-02 05:54:00,73.3,70.8,30.21,ESE,112,0.0,0.0,92,0.00,,,0.00,WUHU21623XXSP,2013-06-02 09:54:00,
2013-06-02 06:00:00,73.3,70.8,30.21,ESE,112,0.0,0.0,92,0.00,,,0.00,WUHU21623XXSP,2013-06-02 10:00:00,
2013-06-02 06:05:00,73.3,70.8,30.21,ESE,112,0.0,0.0,92,0.00,,,0.00,WUHU21623XXSP,2013-06-02 10:05:00,
2013-06-02 06:10:00,73.5,71.0,30.21,ESE,112,0.0,0.0,92,0.00,,,0.00,WUHU21623XXSP,2013-06-02 10:10:00,
2013-06-02 06:15:00,73.5,71.0,30.21,ESE,112,0.0,0.0,92,0.00,,,0.00,WUHU21623XXSP,2013-06-02 10:15:00,
2013-06-02 06:20:00,73.5,71.0,30.21,ESE,112,0.0,0.0,92,0.00,,,0.00,WUHU21623XXSP,2013-06-02 10:20:00,
2013-06-02 06:25:00,73.7,71.2,30.22,ESE,112,0.0,0.0,92,0.00,,,0.00,WUHU21623XXSP,2013-06-02 10:25:00,
2013-06-02 06:30:00,73.8,71.3,30.22,ESE,112,0.0,0.0,92,0.00,,,0.00,WUHU21623XXSP,2013-06-02 10:30:00,
2013-06-02 06:35:00,73.8,71.3,30.22,ESE,112,0.0,0.0,92,0.00,,,0.00,WUHU21623XXSP,2013-06-02 10:35:00,
2013-06-02 06:40:00,73.8,71.3,30.22,ESE,112,0.0,0.0,92,0.00,,,0.00,WUHU21623XXSP,2013-06-02 10:40:00,
2013-06-02 06:45:00,73.8,71.6,30.22,ESE,112,0.0,0.0,93,0.00,,,0.00,WUHU21623XXSP,2013-06-02 10:45:00,
2013-06-02 06:50:00,73.8,71.6,30.22,SE,135,0.0,0.0,93,0.00,,,0.00,WUHU21623XXSP,2013-06-02 10:50:00,
2013-06-02 06:55:00,74.0,71.8,30.22,SE,135,0.0,0.0,93,0.00,,,0.00,WUHU21623XXSP,2013-06-02 10:55:00,
2013-06-02 07:00:00,74.0,71.8,30.22,South,180,0.0,0.0,93,0.00,,,0.00,WUHU21623XXSP,2013-06-02 11:00:00,
2013-06-02 07:05:00,74.0,71.8,30.22,SSE,157,0.0,0.0,93,0.00,,,0.00,WUHU21623XXSP,2013-06-02 11:05:00,
2013-06-02 07:10:00,74.0,71.8,30.22,SSE,157,0.0,0.0,93,0.00,,,0.00,WUHU21623XXSP,2013-06-02 11:10:00,
2013-06-02 07:15:00,74.4,72.2,30.22,SSE,157,0.0,0.0,93,0.00,,,0.00,WUHU21623XXSP,2013-06-02 11:15:00,
2013-06-02 07:20:00,75.1,72.9,30.23,SSE,157,0.0,0.0,93,0.00,,,0.00,WUHU21623XXSP,2013-06-02 11:20:00,
2013-06-02 07:25:00,77.6,75.4,30.23,SSE,157,0.0,0.0,93,0.00,,,0.00,WUHU21623XXSP,2013-06-02 11:25:00,
2013-06-02 07:30:00,78.0,75.5,30.23,SSE,157,0.0,0.0,92,0.00,,,0.00,WUHU21623XXSP,2013-06-02 11:30:00,
2013-06-02 07:35:00,78.5,75.6,30.23,SSE,157,0.0,0.0,91,0.00,,,0.00,WUHU21623XXSP,2013-06-02 11:35:00,
2013-06-02 07:40:00,80.1,76.6,30.23,SSE,157,0.0,0.0,89,0.00,,,0.00,WUHU21623XXSP,2013-06-02 11:40:00,
2013-06-02 07:45:00,80.1,75.9,30.24,SSE,157,0.0,0.0,87,0.00,,,0.00,WUHU21623XXSP,2013-06-02 11:45:00,
2013-06-02 07:50:00,80.0,75.5,30.23,SSE,157,0.0,0.0,86,0.00,,,0.00,WUHU21623XXSP,2013-06-02 11:50:00,
2013-06-02 07:55:00,79.8,75.6,30.24,SSE,157,0.0,0.0,87,0.00,,,0.00,WUHU21623XXSP,2013-06-02 11:55:00,
2013-06-02 08:00:00,81.2,77.0,30.23,SSE,157,0.0,0.0,87,0.00,,,0.00,WUHU21623XXSP,2013-06-02 12:00:00,
2013-06-02 08:05:00,82.1,76.5,30.24,SSE,157,0.0,0.0,83,0.00,,,0.00,WUHU21623XXSP,2013-06-02 12:05:00,
2013-06-02 08:10:00,81.9,76.3,30.24,SSE,157,0.0,0.0,83,0.00,,,0.00,WUHU21623XXSP,2013-06-02 12:10:00,
2013-06-02 08:15:00,82.5,76.5,30.24,SSE,157,0.0,0.0,82,0.00,,,0.00,WUHU21623XXSP,2013-06-02 12:15:00,
2013-06-02 08:21:00,83.2,77.2,30.24,SSE,157,0.0,0.0,82,0.00,,,0.00,WUHU21623XXSP,2013-06-02 12:21:00,
2013-06-02 08:26:00,83.7,77.0,30.24,SSE,157,0.0,0.0,80,0.00,,,0.00,WUHU21623XXSP,2013-06-02 12:26:00,
2013-06-02 08:31:00,83.9,76.8,30.23,SSE,157,0.0,0.0,79,0.00,,,0.00,WUHU21623XXSP,2013-06-02 12:31:00,
2013-06-02 08:36:00,84.1,77.0,30.23,SSE,157,0.0,0.0,79,0.00,,,0.00,WUHU21623XXSP,2013-06-02 12:36:00,
2013-06-02 08:41:00,84.6,77.1,30.24,SSE,157,0.0,0.0,78,0.00,,,0.00,WUHU21623XXSP,2013-06-02 12:41:00,
2013-06-02 08:46:00,85.2,77.7,30.24,SSE,157,0.0,0.0,78,0.00,,,0.00,WUHU21623XXSP,2013-06-02 12:46:00,
2013-06-02 08:51:00,85.5,77.6,30.24,SE,135,0.0,0.0,77,0.00,,,0.00,WUHU21623XXSP,2013-06-02 12:51:00,
2013-06-02 08:56:00,85.9,77.6,30.24,SSE,157,0.0,0.0,76,0.00,,,0.00,WUHU21623XXSP,2013-06-02 12:56:00,
2013-06-02 09:01:00,86.1,77.5,30.24,SE,135,0.0,0.0,75,0.00,,,0.00,WUHU21623XXSP,2013-06-02 13:01:00,
2013-06-02 09:06:00,86.1,77.1,30.24,ESE,112,0.0,0.0,74,0.00,,,0.00,WUHU21623XXSP,2013-06-02 13:06:00,
2013-06-02 09:11:00,86.1,77.1,30.24,SSE,157,0.0,0.0,74,0.00,,,0.00,WUHU21623XXSP,2013-06-02 13:11:00,
2013-06-02 09:16:00,85.7,76.7,30.24,ENE,67,0.0,0.0,74,0.00,,,0.00,WUHU21623XXSP,2013-06-02 13:16:00,
2013-06-02 09:21:00,85.0,76.0,30.24,ENE,67,0.0,0.0,74,0.00,,,0.00,WUHU21623XXSP,2013-06-02 13:21:00,
2013-06-02 09:26:00,85.2,77.0,30.24,NE,45,0.0,0.0,76,0.00,,,0.00,WUHU21623XXSP,2013-06-02 13:26:00,
2013-06-02 09:31:00,85.9,77.3,30.24,SSE,157,0.0,0.0,75,0.00,,,0.00,WUHU21623XXSP,2013-06-02 13:31:00,
2013-06-02 09:36:00,86.6,77.1,30.24,ESE,112,0.0,0.0,73,0.00,,,0.00,WUHU21623XXSP,2013-06-02 13:36:00,
2013-06-02 09:41:00,86.4,76.5,30.24,SSE,157,0.0,0.0,72,0.00,,,0.00,WUHU21623XXSP,2013-06-02 13:41:00,
2013-06-02 09:46:00,86.8,77.3,30.24,SSE,157,0.0,0.0,73,0.00,,,0.00,WUHU21623XXSP,2013-06-02 13:46:00,
2013-06-02 09:51:00,87.2,76.9,30.24,SSE,157,0.0,0.0,71,0.00,,,0.00,WUHU21623XXSP,2013-06-02 13:51:00,
2013-06-02 09:56:00,87.3,77.0,30.24,SW,225,0.0,0.0,71,0.00,,,0.00,WUHU21623XXSP,2013-06-02 13:56:00,
2013-06-02 10:01:00,87.5,76.8,30.24,ESE,112,0.0,0.0,70,0.00,,,0.00,WUHU21623XXSP,2013-06-02 14:01:00,
2013-06-02 10:06:00,87.7,76.5,30.24,South,180,0.0,0.0,69,0.00,,,0.00,WUHU21623XXSP,2013-06-02 14:06:00,
2013-06-02 10:11:00,88.2,77.0,30.24,SE,135,0.0,0.0,69,0.00,,,0.00,WUHU21623XXSP,2013-06-02 14:11:00,
2013-06-02 10:16:00,87.9,76.3,30.24,ESE,112,0.0,0.0,68,0.00,,,0.00,WUHU21623XXSP,2013-06-02 14:16:00,
2013-06-02 10:21:00,87.7,76.5,30.24,ESE,112,0.0,0.0,69,0.00,,,0.00,WUHU21623XXSP,2013-06-02 14:21:00,
2013-06-02 10:26:00,86.6,76.3,30.24,East,90,0.0,0.0,71,0.00,,,0.00,WUHU21623XXSP,2013-06-02 14:26:00,
2013-06-02 10:31:00,86.6,76.3,30.24,ENE,67,0.0,0.0,71,0.00,,,0.00,WUHU21623XXSP,2013-06-02 14:31:00,
2013-06-02 10:36:00,86.1,75.8,30.24,ENE,67,0.0,0.0,71,0.00,,,0.00,WUHU21623XXSP,2013-06-02 14:36:00,
2013-06-02 10:41:00,85.5,75.7,30.23,ENE,67,0.0,0.0,72,0.00,,,0.00,WUHU21623XXSP,2013-06-02 14:41:00,
2013-06-02 10:46:00,85.7,75.9,30.23,ENE,67,0.0,0.0,72,0.00,,,0.00,WUHU21623XXSP,2013-06-02 14:46:00,
2013-06-02 10:51:00,85.9,76.5,30.23,ESE,112,0.0,0.0,73,0.00,,,0.00,WUHU21623XXSP,2013-06-02 14:51:00,
2013-06-02 10:57:00,86.1,76.3,30.23,ESE,112,0.0,0.0,72,0.00,,,0.00,WUHU21623XXSP,2013-06-02 14:57:00,
2013-06-02 11:02:00,85.4,75.6,30.23,NE,45,0.0,0.0,72,0.00,,,0.00,WUHU21623XXSP,2013-06-02 15:02:00,
2013-06-02 11:07:00,84.6,75.2,30.24,NE,45,0.0,0.0,73,0.00,,,0.00,WUHU21623XXSP,2013-06-02 15:07:00,
2013-06-02 11:12:00,84.8,75.8,30.23,East,90,0.0,0.0,74,0.00,,,0.00,WUHU21623XXSP,2013-06-02 15:12:00,
2013-06-02 11:17:00,84.5,75.5,30.23,NE,45,0.0,0.0,74,0.00,,,0.00,WUHU21623XXSP,2013-06-02 15:17:00,
2013-06-02 11:22:00,84.3,75.3,30.23,ENE,67,0.0,0.0,74,0.00,,,0.00,WUHU21623XXSP,2013-06-02 15:22:00,
2013-06-02 11:27:00,84.6,75.6,30.23,East,90,0.0,0.0,74,0.00,,,0.00,WUHU21623XXSP,2013-06-02 15:27:00,
2013-06-02 11:32:00,84.3,75.3,30.23,ESE,112,0.0,0.0,74,0.00,,,0.00,WUHU21623XXSP,2013-06-02 15:32:00,
2013-06-02 11:37:00,84.8,75.8,30.23,ESE,112,0.0,0.0,74,0.00,,,0.00,WUHU21623XXSP,2013-06-02 15:37:00,
2013-06-02 11:42:00,84.3,74.9,30.23,ESE,112,0.0,0.0,73,0.00,,,0.00,WUHU21623XXSP,2013-06-02 15:42:00,
2013-06-02 11:47:00,84.1,75.5,30.23,ENE,67,0.0,0.0,75,0.00,,,0.00,WUHU21623XXSP,2013-06-02 15:47:00,
2013-06-02 11:52:00,84.8,76.2,30.23,ESE,112,0.0,0.0,75,0.00,,,0.00,WUHU21623XXSP,2013-06-02 15:52:00,
2013-06-02 11:57:00,86.1,76.7,30.22,ENE,67,0.0,0.0,73,0.00,,,0.00,WUHU21623XXSP,2013-06-02 15:57:00,
2013-06-02 12:02:00,86.4,76.5,30.22,ESE,112,0.0,0.0,72,0.00,,,0.00,WUHU21623XXSP,2013-06-02 16:02:00,
2013-06-02 12:07:00,87.0,77.1,30.23,ENE,67,0.0,0.0,72,0.00,,,0.00,WUHU21623XXSP,2013-06-02 16:07:00,
2013-06-02 12:12:00,87.2,76.5,30.23,ESE,112,0.0,0.0,70,0.00,,,0.00,WUHU21623XXSP,2013-06-02 16:12:00,
2013-06-02 12:17:00,86.6,76.3,30.22,ENE,67,0.0,0.0,71,0.00,,,0.00,WUHU21623XXSP,2013-06-02 16:17:00,
2013-06-02 12:22:00,85.7,74.6,30.22,ESE,112,0.0,0.0,69,0.00,,,0.00,WUHU21623XXSP,2013-06-02 16:22:00,
2013-06-02 12:27:00,85.2,75.0,30.23,ENE,67,0.0,0.0,71,0.00,,,0.00,WUHU21623XXSP,2013-06-02 16:27:00,
2013-06-02 12:32:00,85.7,75.5,30.22,ESE,112,0.0,0.0,71,0.00,,,0.00,WUHU21623XXSP,2013-06-02 16:32:00,
2013-06-02 12:37:00,86.6,75.9,30.22,ESE,112,0.0,0.0,70,0.00,,,0.00,WUHU21623XXSP,2013-06-02 16:37:00,
2013-06-02 12:42:00,87.5,75.9,30.22,ENE,67,0.0,0.0,68,0.00,,,0.00,WUHU21623XXSP,2013-06-02 16:42:00,
2013-06-02 12:47:00,87.9,75.9,30.22,ENE,67,0.0,0.0,67,0.00,,,0.00,WUHU21623XXSP,2013-06-02 16:47:00,
2013-06-02 12:52:00,88.2,76.1,30.22,SE,135,0.0,0.0,67,0.00,,,0.00,WUHU21623XXSP,2013-06-02 16:52:00,
2013-06-02 12:57:00,89.0,76.5,30.22,ESE,112,0.0,0.0,66,0.00,,,0.00,WUHU21623XXSP,2013-06-02 16:57:00,
2013-06-02 13:02:00,89.3,76.3,30.22,SE,135,0.0,0.0,65,0.00,,,0.00,WUHU21623XXSP,2013-06-02 17:02:00,
2013-06-02 13:07:00,89.5,75.5,30.22,SSE,157,0.0,0.0,63,0.00,,,0.00,WUHU21623XXSP,2013-06-02 17:07:00,
2013-06-02 13:12:00,90.0,76.5,30.22,ENE,67,0.0,0.0,64,0.00,,,0.00,WUHU21623XXSP,2013-06-02 17:12:00,
2013-06-02 13:17:00,90.8,76.8,30.21,NNE,22,0.0,0.0,63,0.00,,,0.00,WUHU21623XXSP,2013-06-02 17:17:00,
2013-06-02 13:22:00,91.1,76.1,30.21,ESE,112,0.0,0.0,61,0.00,,,0.00,WUHU21623XXSP,2013-06-02 17:22:00,
2013-06-02 13:27:00,91.5,76.5,30.21,ENE,67,0.0,0.0,61,0.00,,,0.00,WUHU21623XXSP,2013-06-02 17:27:00,
2013-06-02 13:32:00,91.8,76.2,30.21,NE,45,0.0,0.0,60,0.00,,,0.00,WUHU21623XXSP,2013-06-02 17:32:00,
2013-06-02 13:37:00,92.0,76.4,30.21,NE,45,0.0,0.0,60,0.00,,,0.00,WUHU21623XXSP,2013-06-02 17:37:00,
2013-06-02 13:42:00,91.5,76.0,30.22,SSE,157,0.0,0.0,60,0.00,,,0.00,WUHU21623XXSP,2013-06-02 17:42:00,
2013-06-02 13:47:00,90.9,75.4,30.21,SE,135,0.0,0.0,60,0.00,,,0.00,WUHU21623XXSP,2013-06-02 17:47:00,
2013-06-02 13:52:00,89.5,74.6,30.21,ESE,112,0.0,0.0,61,0.00,,,0.00,WUHU21623XXSP,2013-06-02 17:52:00,
2013-06-02 13:57:00,88.4,74.0,30.21,ESE,112,0.0,0.0,62,0.00,,,0.00,WUHU21623XXSP,2013-06-02 17:57:00,
2013-06-02 14:02:00,88.2,74.8,30.21,ESE,112,0.0,0.0,64,0.00,,,0.00,WUHU21623XXSP,2013-06-02 18:02:00,
2013-06-02 14:07:00,89.5,76.0,30.20,NNE,22,0.0,0.0,64,0.00,,,0.00,WUHU21623XXSP,2013-06-02 18:07:00,
2013-06-02 14:12:00,90.2,75.7,30.20,NNE,22,0.0,0.0,62,0.00,,,0.00,WUHU21623XXSP,2013-06-02 18:12:00,
2013-06-02 14:17:00,89.7,75.3,30.20,NE,45,0.0,0.0,62,0.00,,,0.00,WUHU21623XXSP,2013-06-02 18:17:00,
2013-06-02 14:22:00,89.3,74.9,30.20,NNE,22,0.0,0.0,62,0.00,,,0.00,WUHU21623XXSP,2013-06-02 18:22:00,
2013-06-02 14:27:00,89.0,75.1,30.20,NNE,22,0.0,0.0,63,0.00,,,0.00,WUHU21623XXSP,2013-06-02 18:27:00,
2013-06-02 14:32:00,88.4,75.0,30.20,NNE,22,0.0,0.0,64,0.00,,,0.00,WUHU21623XXSP,2013-06-02 18:32:00,
2013-06-02 14:37:00,87.7,74.3,30.20,NNE,22,0.0,0.0,64,0.00,,,0.00,WUHU21623XXSP,2013-06-02 18:37:00,
2013-06-02 14:42:00,87.5,74.1,30.20,NNE,22,0.0,0.0,64,0.00,,,0.00,WUHU21623XXSP,2013-06-02 18:42:00,
2013-06-02 14:47:00,87.5,74.1,30.20,NNE,22,0.0,0.0,64,0.00,,,0.00,WUHU21623XXSP,2013-06-02 18:47:00,
2013-06-02 14:52:00,87.3,73.9,30.20,North,0,0.0,0.0,64,0.00,,,0.00,WUHU21623XXSP,2013-06-02 18:52:00,
2013-06-02 14:57:00,87.0,73.6,30.20,ENE,67,0.0,0.0,64,0.00,,,0.00,WUHU21623XXSP,2013-06-02 18:57:00,
2013-06-02 15:02:00,87.0,74.1,30.20,ESE,112,0.0,0.0,65,0.00,,,0.00,WUHU21623XXSP,2013-06-02 19:02:00,
2013-06-02 15:07:00,87.0,74.1,30.20,ESE,112,0.0,0.0,65,0.00,,,0.00,WUHU21623XXSP,2013-06-02 19:07:00,
2013-06-02 15:13:00,87.2,74.3,30.19,ESE,112,0.0,0.0,65,0.00,,,0.00,WUHU21623XXSP,2013-06-02 19:13:00,
2013-06-02 15:17:00,87.7,74.8,30.19,SE,135,0.0,0.0,65,0.00,,,0.00,WUHU21623XXSP,2013-06-02 19:17:00,
2013-06-02 15:23:00,89.1,76.1,30.19,WSW,247,0.0,0.0,65,0.00,,,0.00,WUHU21623XXSP,2013-06-02 19:23:00,
2013-06-02 15:28:00,89.5,75.1,30.19,South,180,0.0,0.0,62,0.00,,,0.00,WUHU21623XXSP,2013-06-02 19:28:00,
2013-06-02 15:32:00,89.7,74.8,30.19,WSW,247,0.0,0.0,61,0.00,,,0.00,WUHU21623XXSP,2013-06-02 19:32:00,
2013-06-02 15:37:00,90.8,75.8,30.19,WSW,247,0.0,0.0,61,0.00,,,0.00,WUHU21623XXSP,2013-06-02 19:37:00,
2013-06-02 15:43:00,91.5,75.5,30.19,SSE,157,0.0,0.0,59,0.00,,,0.00,WUHU21623XXSP,2013-06-02 19:43:00,
2013-06-02 15:48:00,92.4,75.2,30.19,WSW,247,0.0,0.0,57,0.00,,,0.00,WUHU21623XXSP,2013-06-02 19:48:00,
2013-06-02 15:53:00,92.0,75.4,30.19,WSW,247,0.0,0.0,58,0.00,,,0.00,WUHU21623XXSP,2013-06-02 19:53:00,
2013-06-02 15:58:00,91.8,75.7,30.19,South,180,0.0,0.0,59,0.00,,,0.00,WUHU21623XXSP,2013-06-02 19:58:00,
2013-06-02 16:03:00,92.0,75.9,30.19,South,180,0.0,0.0,59,0.00,,,0.00,WUHU21623XXSP,2013-06-02 20:03:00,
2013-06-02 16:08:00,92.2,75.6,30.19,West,270,0.0,0.0,58,0.00,,,0.00,WUHU21623XXSP,2013-06-02 20:08:00,
2013-06-02 16:13:00,92.6,75.4,30.18,SW,225,0.0,0.0,57,0.00,,,0.00,WUHU21623XXSP,2013-06-02 20:13:00,
2013-06-02 16:18:00,92.4,75.2,30.19,WSW,247,0.0,0.0,57,0.00,,,0.00,WUHU21623XXSP,2013-06-02 20:18:00,
2013-06-02 16:23:00,92.4,75.2,30.19,SSE,157,0.0,0.0,57,0.00,,,0.00,WUHU21623XXSP,2013-06-02 20:23:00,
2013-06-02 16:28:00,92.7,75.0,30.19,SW,225,0.0,0.0,56,0.00,,,0.00,WUHU21623XXSP,2013-06-02 20:28:00,
2013-06-02 16:33:00,92.0,75.4,30.18,WSW,247,0.0,0.0,58,0.00,,,0.00,WUHU21623XXSP,2013-06-02 20:33:00,
2013-06-02 16:38:00,92.0,75.9,30.17,WSW,247,0.0,0.0,59,0.00,,,0.00,WUHU21623XXSP,2013-06-02 20:38:00,
2013-06-02 16:43:00,92.0,75.4,30.18,WNW,292,0.0,0.0,58,0.00,,,0.00,WUHU21623XXSP,2013-06-02 20:43:00,
2013-06-02 16:48:00,92.0,75.9,30.18,West,270,0.0,0.0,59,0.00,,,0.00,WUHU21623XXSP,2013-06-02 20:48:00,
2013-06-02 16:53:00,92.0,75.4,30.17,South,180,0.0,0.0,58,0.00,,,0.00,WUHU21623XXSP,2013-06-02 20:53:00,
2013-06-02 16:58:00,92.0,75.4,30.18,SSE,157,0.0,0.0,58,0.00,,,0.00,WUHU21623XXSP,2013-06-02 20:58:00,
2013-06-02 17:03:00,92.0,75.4,30.17,SW,225,0.0,0.0,58,0.00,,,0.00,WUHU21623XXSP,2013-06-02 21:03:00,
2013-06-02 17:08:00,91.7,75.1,30.17,SW,225,0.0,0.0,58,0.00,,,0.00,WUHU21623XXSP,2013-06-02 21:08:00,
2013-06-02 17:13:00,91.8,75.2,30.17,SW,225,0.0,0.0,58,0.00,,,0.00,WUHU21623XXSP,2013-06-02 21:13:00,
2013-06-02 17:18:00,91.8,75.2,30.16,SSW,202,0.0,0.0,58,0.00,,,0.00,WUHU21623XXSP,2013-06-02 21:18:00,
2013-06-02 17:23:00,91.8,75.7,30.16,West,270,0.0,0.0,59,0.00,,,0.00,WUHU21623XXSP,2013-06-02 21:23:00,
2013-06-02 17:28:00,91.5,75.5,30.16,WSW,247,0.0,0.0,59,0.00,,,0.00,WUHU21623XXSP,2013-06-02 21:28:00,
2013-06-02 17:33:00,90.9,74.9,30.16,WSW,247,0.0,0.0,59,0.00,,,0.00,WUHU21623XXSP,2013-06-02 21:33:00,
2013-06-02 17:38:00,90.4,74.9,30.17,WSW,247,0.0,0.0,60,0.00,,,0.00,WUHU21623XXSP,2013-06-02 21:38:00,
2013-06-02 17:43:00,89.5,75.1,30.17,West,270,0.0,0.0,62,0.00,,,0.00,WUHU21623XXSP,2013-06-02 21:43:00,
2013-06-02 17:48:00,89.1,74.7,30.17,WSW,247,0.0,21.3,62,0.00,,,0.00,WUHU21623XXSP,2013-06-02 21:48:00,
2013-06-02 17:53:00,88.6,74.7,30.17,West,270,0.0,21.3,63,0.00,,,0.00,WUHU21623XXSP,2013-06-02 21:53:00,
2013-06-02 17:58:00,88.4,75.0,30.16,WNW,300,21.4,22.6,64,0.00,,,0.00,WUHU21623XXSP,2013-06-02 21:58:00,
2013-06-02 18:03:00,88.1,74.7,30.16,WNW,282,22.1,22.6,64,0.00,,,0.00,WUHU21623XXSP,2013-06-02 22:03:00,
2013-06-02 18:08:00,88.2,74.8,30.17,SW,225,0.0,22.6,64,0.00,,,0.00,WUHU21623XXSP,2013-06-02 22:08:00,
2013-06-02 18:13:00,88.2,75.2,30.16,WSW,246,21.4,23.9,65,0.00,,,0.00,WUHU21623XXSP,2013-06-02 22:13:00,
2013-06-02 18:18:00,88.2,75.2,30.16,SW,225,0.0,23.9,65,0.00,,,0.00,WUHU21623XXSP,2013-06-02 22:18:00,
2013-06-02 18:23:00,88.4,75.4,30.16,SW,225,20.7,23.9,65,0.00,,,0.00,WUHU21623XXSP,2013-06-02 22:23:00,
2013-06-02 18:28:00,88.8,74.9,30.16,WNW,292,0.0,23.5,63,0.00,,,0.00,WUHU21623XXSP,2013-06-02 22:28:00,
2013-06-02 18:33:00,89.5,75.1,30.16,West,270,0.0,0.0,62,0.00,,,0.00,WUHU21623XXSP,2013-06-02 22:33:00,
2013-06-02 18:38:00,90.6,75.6,30.15,SW,225,0.0,0.0,61,0.00,,,0.00,WUHU21623XXSP,2013-06-02 22:38:00,
2013-06-02 18:43:00,90.8,75.3,30.16,West,259,22.9,23.9,60,0.00,,,0.00,WUHU21623XXSP,2013-06-02 22:43:00,
2013-06-02 18:48:00,90.6,75.1,30.15,West,270,23.0,23.9,60,0.00,,,0.00,WUHU21623XXSP,2013-06-02 22:48:00,
2013-06-02 18:53:00,90.8,75.3,30.15,SSW,202,23.3,23.9,60,0.00,,,0.00,WUHU21623XXSP,2013-06-02 22:53:00,
2013-06-02 18:58:00,91.3,75.3,30.16,WNW,292,0.0,23.9,59,0.00,,,0.00,WUHU21623XXSP,2013-06-02 22:58:00,
2013-06-02 19:03:00,90.6,74.6,30.16,WSW,239,21.4,23.9,59,0.00,,,0.00,WUHU21623XXSP,2013-06-02 23:03:00,
2013-06-02 19:08:00,89.7,74.3,30.16,WSW,247,21.3,23.9,60,0.00,,,0.00,WUHU21623XXSP,2013-06-02 23:08:00,
2013-06-02 19:13:00,89.3,74.4,30.16,WSW,247,23.5,23.9,61,0.00,,,0.00,WUHU21623XXSP,2013-06-02 23:13:00,
2013-06-02 19:18:00,88.8,74.4,30.16,WSW,247,22.6,23.9,62,0.00,,,0.00,WUHU21623XXSP,2013-06-02 23:18:00,
2013-06-02 19:23:00,89.0,74.6,30.17,SW,225,0.0,23.9,62,0.00,,,0.00,WUHU21623XXSP,2013-06-02 23:23:00,
2013-06-02 19:28:00,89.3,74.9,30.17,SSW,202,0.0,23.9,62,0.00,,,0.00,WUHU21623XXSP,2013-06-02 23:28:00,
2013-06-02 19:33:00,89.5,74.6,30.17,SSW,202,0.0,0.0,61,0.00,,,0.00,WUHU21623XXSP,2013-06-02 23:33:00,
2013-06-02 19:38:00,89.1,74.7,30.17,WSW,247,0.0,0.0,62,0.00,,,0.00,WUHU21623XXSP,2013-06-02 23:38:00,
2013-06-02 19:43:00,88.8,74.4,30.17,West,270,0.0,0.0,62,0.00,,,0.00,WUHU21623XXSP,2013-06-02 23:43:00,
2013-06-02 19:48:00,88.4,74.5,30.17,SW,225,0.0,0.0,63,0.00,,,0.00,WUHU21623XXSP,2013-06-02 23:48:00,
2013-06-02 19:54:00,87.2,73.4,30.17,West,270,0.0,0.0,63,0.00,,,0.00,WUHU21623XXSP,2013-06-02 23:54:00,
2013-06-02 19:59:00,85.7,72.9,30.17,WSW,247,0.0,0.0,65,0.00,,,0.00,WUHU21623XXSP,2013-06-02 23:59:00,
2013-06-02 20:04:00,84.8,72.9,30.18,SW,225,0.0,0.0,67,0.00,,,0.00,WUHU21623XXSP,2013-06-03 00:04:00,
2013-06-02 20:09:00,83.9,72.5,30.18,SW,225,0.0,0.0,68,0.00,,,0.00,WUHU21623XXSP,2013-06-03 00:09:00,
2013-06-02 20:14:00,83.4,72.4,30.18,SSW,202,0.0,0.0,69,0.00,,,0.00,WUHU21623XXSP,2013-06-03 00:14:00,
2013-06-02 20:19:00,82.8,72.3,30.18,SW,225,0.0,0.0,70,0.00,,,0.00,WUHU21623XXSP,2013-06-03 00:19:00,
2013-06-02 20:24:00,82.3,72.2,30.18,SSW,202,0.0,0.0,71,0.00,,,0.00,WUHU21623XXSP,2013-06-03 00:24:00,
2013-06-02 20:29:00,81.9,71.8,30.18,SW,225,0.0,0.0,71,0.00,,,0.00,WUHU21623XXSP,2013-06-03 00:29:00,
2013-06-02 20:34:00,81.6,71.9,30.18,SSW,202,0.0,0.0,72,0.00,,,0.00,WUHU21623XXSP,2013-06-03 00:34:00,
2013-06-02 20:39:00,81.2,72.3,30.18,WSW,247,23.5,23.5,74,0.00,,,0.00,WUHU21623XXSP,2013-06-03 00:39:00,
2013-06-02 20:44:00,81.0,72.1,30.19,WSW,247,0.0,23.5,74,0.00,,,0.00,WUHU21623XXSP,2013-06-03 00:44:00,
2013-06-02 20:49:00,80.7,71.8,30.19,SW,225,0.0,0.0,74,0.00,,,0.00,WUHU21623XXSP,2013-06-03 00:49:00,
2013-06-02 20:54:00,80.7,72.6,30.19,South,180,0.0,0.0,76,0.00,,,0.00,WUHU21623XXSP,2013-06-03 00:54:00,
2013-06-02 20:59:00,80.3,72.2,30.19,SW,225,0.0,0.0,76,0.00,,,0.00,WUHU21623XXSP,2013-06-03 00:59:00,
2013-06-02 21:04:00,80.1,72.4,30.20,South,180,0.0,0.0,77,0.00,,,0.00,WUHU21623XXSP,2013-06-03 01:04:00,
2013-06-02 21:09:00,80.1,72.4,30.20,South,180,0.0,0.0,77,0.00,,,0.00,WUHU21623XXSP,2013-06-03 01:09:00,
2013-06-02 21:14:00,80.1,72.4,30.20,South,180,0.0,0.0,77,0.00,,,0.00,WUHU21623XXSP,2013-06-03 01:14:00,
2013-06-02 21:19:00,80.0,72.7,30.21,South,180,0.0,0.0,78,0.00,,,0.00,WUHU21623XXSP,2013-06-03 01:19:00,
2013-06-02 21:24:00,79.8,72.5,30.21,South,180,0.0,0.0,78,0.00,,,0.00,WUHU21623XXSP,2013-06-03 01:24:00,
2013-06-02 21:29:00,79.8,72.8,30.21,South,180,0.0,0.0,79,0.00,,,0.00,WUHU21623XXSP,2013-06-03 01:29:00,
2013-06-02 21:34:00,79.6,72.6,30.21,South,180,0.0,0.0,79,0.00,,,0.00,WUHU21623XXSP,2013-06-03 01:34:00,
2013-06-02 21:39:00,79.6,73.0,30.21,South,180,0.0,0.0,80,0.00,,,0.00,WUHU21623XXSP,2013-06-03 01:39:00,
2013-06-02 21:44:00,79.4,72.8,30.21,South,180,0.0,0.0,80,0.00,,,0.00,WUHU21623XXSP,2013-06-03 01:44:00,
2013-06-02 21:49:00,79.4,72.8,30.21,South,180,0.0,0.0,80,0.00,,,0.00,WUHU21623XXSP,2013-06-03 01:49:00,
2013-06-02 21:54:00,79.4,72.8,30.21,South,180,0.0,0.0,80,0.00,,,0.00,WUHU21623XXSP,2013-06-03 01:54:00,
2013-06-02 21:59:00,79.2,72.6,30.22,South,180,0.0,0.0,80,0.00,,,0.00,WUHU21623XXSP,2013-06-03 01:59:00,
2013-06-02 22:04:00,79.2,72.6,30.22,South,180,0.0,0.0,80,0.00,,,0.00,WUHU21623XXSP,2013-06-03 02:04:00,
2013-06-02 22:09:00,79.1,72.9,30.22,South,180,0.0,0.0,81,0.00,,,0.00,WUHU21623XXSP,2013-06-03 02:09:00,
2013-06-02 22:14:00,78.9,72.7,30.22,South,180,0.0,0.0,81,0.00,,,0.00,WUHU21623XXSP,2013-06-03 02:14:00,
2013-06-02 22:19:00,78.9,72.7,30.22,South,180,0.0,0.0,81,0.00,,,0.00,WUHU21623XXSP,2013-06-03 02:19:00,
2013-06-02 22:24:00,78.7,72.8,30.23,South,180,0.0,0.0,82,0.00,,,0.00,WUHU21623XXSP,2013-06-03 02:24:00,
2013-06-02 22:29:00,78.7,72.8,30.23,South,180,0.0,0.0,82,0.00,,,0.00,WUHU21623XXSP,2013-06-03 02:29:00,
2013-06-02 22:34:00,78.5,72.6,30.23,South,180,0.0,0.0,82,0.00,,,0.00,WUHU21623XXSP,2013-06-03 02:34:00,
2013-06-02 22:39:00,78.5,72.6,30.23,South,180,0.0,0.0,82,0.00,,,0.00,WUHU21623XXSP,2013-06-03 02:39:00,
2013-06-02 22:44:00,78.3,72.8,30.23,South,180,0.0,0.0,83,0.00,,,0.00,WUHU21623XXSP,2013-06-03 02:44:00,
2013-06-02 22:49:00,78.3,72.8,30.23,South,180,0.0,0.0,83,0.00,,,0.00,WUHU21623XXSP,2013-06-03 02:49:00,
2013-06-02 22:54:00,78.3,72.8,30.23,South,180,0.0,0.0,83,0.00,,,0.00,WUHU21623XXSP,2013-06-03 02:54:00,
2013-06-02 22:59:00,78.2,72.7,30.23,South,180,0.0,0.0,83,0.00,,,0.00,WUHU21623XXSP,2013-06-03 02:59:00,
2013-06-02 23:04:00,78.2,72.7,30.23,South,180,0.0,0.0,83,0.00,,,0.00,WUHU21623XXSP,2013-06-03 03:04:00,
2013-06-02 23:09:00,78.0,72.5,30.22,South,180,0.0,0.0,83,0.00,,,0.00,WUHU21623XXSP,2013-06-03 03:09:00,
2013-06-02 23:14:00,78.0,72.8,30.22,South,180,0.0,0.0,84,0.00,,,0.00,WUHU21623XXSP,2013-06-03 03:14:00,
2013-06-02 23:19:00,78.0,72.5,30.22,South,180,0.0,0.0,83,0.00,,,0.00,WUHU21623XXSP,2013-06-03 03:19:00,
2013-06-02 23:24:00,77.8,72.3,30.22,South,180,0.0,0.0,83,0.00,,,0.00,WUHU21623XXSP,2013-06-03 03:24:00,
2013-06-02 23:29:00,77.6,72.4,30.22,South,180,0.0,0.0,84,0.00,,,0.00,WUHU21623XXSP,2013-06-03 03:29:00,
2013-06-02 23:34:00,77.6,72.4,30.21,South,180,0.0,0.0,84,0.00,,,0.00,WUHU21623XXSP,2013-06-03 03:34:00,
2013-06-02 23:39:00,77.6,72.4,30.21,South,180,0.0,0.0,84,0.00,,,0.00,WUHU21623XXSP,2013-06-03 03:39:00,
2013-06-02 23:44:00,77.6,72.4,30.21,South,180,0.0,0.0,84,0.00,,,0.00,WUHU21623XXSP,2013-06-03 03:44:00,
2013-06-02 23:49:00,77.4,72.2,30.21,South,180,0.0,0.0,84,0.00,,,0.00,WUHU21623XXSP,2013-06-03 03:49:00,
2013-06-02 23:54:00,77.4,72.2,30.21,South,180,0.0,0.0,84,0.00,,,0.00,WUHU21623XXSP,2013-06-03 03:54:00,
2013-06-02 23:59:00,77.3,72.1,30.21,South,180,0.0,0.0,84,0.00,,,0.00,WUHU21623XXSP,2013-06-03 03:59:00,